Time;durP1;ratioP1;P1;durP2;ratioP2;P2;SDS_P1;SDS_P2;PMS_P1;PMS_P2;Temp;Humidity;BMP_temperature;BMP_pressure;BME280_temperature;BME280_humidity;BME280_pressure;Samples;Min_cycle;Max_cycle;Signal;HPM_P1;HPM_P2
2021/06/26 00:00:06;;;;;;;5.80;4.20;;;14.50;99.90;;;;;;4973026;28;20050;-89
2021/06/26 00:02:36;;;;;;;8.05;5.32;;;14.50;99.90;;;;;;4973230;28;20039;-90
2021/06/26 00:05:02;;;;;;;5.95;4.63;;;14.50;99.90;;;;;;4974914;28;20460;-90
2021/06/26 00:07:28;;;;;;;6.30;4.40;;;14.50;99.90;;;;;;4974263;28;20031;-89
2021/06/26 00:09:54;;;;;;;6.18;4.35;;;14.60;99.90;;;;;;4974167;28;20045;-89
2021/06/26 00:12:19;;;;;;;6.18;4.85;;;14.60;99.90;;;;;;4972287;28;20042;-90
2021/06/26 00:14:45;;;;;;;4.50;3.90;;;14.50;99.90;;;;;;4972544;28;20030;-89
2021/06/26 00:17:12;;;;;;;5.43;3.20;;;14.50;99.90;;;;;;4972871;28;20035;-90
2021/06/26 00:19:37;;;;;;;3.22;2.83;;;14.40;99.90;;;;;;4940610;28;20042;-91
2021/06/26 00:22:05;;;;;;;4.32;3.75;;;14.40;99.90;;;;;;4956308;28;20417;-89
2021/06/26 00:24:33;;;;;;;5.82;3.75;;;14.30;99.90;;;;;;4972449;28;20097;-90
2021/06/26 00:26:59;;;;;;;4.38;3.92;;;14.30;99.90;;;;;;4956941;28;20125;-89
2021/06/26 00:29:25;;;;;;;5.20;3.88;;;14.30;99.90;;;;;;4959935;28;20066;-90
2021/06/26 00:31:51;;;;;;;4.28;3.72;;;14.40;99.90;;;;;;4944978;28;20117;-90
2021/06/26 00:34:17;;;;;;;4.25;3.85;;;14.40;99.90;;;;;;4958147;28;20065;-89
2021/06/26 00:36:42;;;;;;;5.57;3.72;;;14.50;99.90;;;;;;4958005;28;20027;-90
2021/06/26 00:39:08;;;;;;;4.43;3.67;;;14.50;99.90;;;;;;4957204;28;20039;-89
2021/06/26 00:41:34;;;;;;;3.15;2.85;;;14.40;99.90;;;;;;4941355;28;20038;-90
2021/06/26 00:44:00;;;;;;;3.38;2.95;;;14.40;99.90;;;;;;4954076;28;20062;-89
2021/06/26 00:46:26;;;;;;;2.85;2.55;;;14.40;99.90;;;;;;4953537;28;20509;-89
2021/06/26 00:51:39;;;;;;;4.50;2.50;;;14.30;99.90;;;;;;5068629;28;20379;-78
2021/06/26 00:54:05;;;;;;;2.03;1.90;;;14.30;99.90;;;;;;5059209;28;20100;-79
2021/06/26 00:56:31;;;;;;;3.67;1.55;;;14.20;99.90;;;;;;5051078;28;20037;-79
2021/06/26 00:58:57;;;;;;;1.40;1.30;;;14.10;99.90;;;;;;5031338;28;20027;-79
2021/06/26 01:01:22;;;;;;;2.00;1.80;;;14.10;99.90;;;;;;5026886;28;20042;-79
2021/06/26 01:03:49;;;;;;;2.15;1.95;;;14.10;99.90;;;;;;5046821;28;20029;-79
2021/06/26 01:06:15;;;;;;;1.90;1.80;;;14.10;99.90;;;;;;5030337;28;20477;-79
2021/06/26 01:08:41;;;;;;;1.75;1.65;;;14.10;99.90;;;;;;5044805;28;20479;-78
2021/06/26 01:11:07;;;;;;;2.20;1.90;;;14.00;99.90;;;;;;5029963;28;20026;-78
2021/06/26 01:13:33;;;;;;;1.70;1.60;;;13.90;99.90;;;;;;5048388;28;20032;-78
2021/06/26 01:15:59;;;;;;;1.80;1.70;;;13.90;99.90;;;;;;5051473;28;20037;-78
2021/06/26 01:18:26;;;;;;;1.73;1.63;;;13.80;99.90;;;;;;5048585;28;20256;-79
2021/06/26 01:20:52;;;;;;;1.98;1.77;;;13.80;99.90;;;;;;5050127;28;20033;-79
2021/06/26 01:23:19;;;;;;;1.80;1.70;;;13.90;99.90;;;;;;5046162;28;20029;-79
2021/06/26 01:25:44;;;;;;;6.47;2.30;;;13.80;99.90;;;;;;5064222;28;20171;-79
2021/06/26 01:28:12;;;;;;;2.95;2.60;;;13.80;99.90;;;;;;5055406;28;20128;-79
2021/06/26 01:30:38;;;;;;;3.25;2.30;;;13.70;99.90;;;;;;5026741;28;20041;-79
2021/06/26 01:33:04;;;;;;;4.30;2.50;;;13.60;99.90;;;;;;5053974;28;20036;-79
2021/06/26 01:35:31;;;;;;;2.90;2.63;;;13.50;99.90;;;;;;5043195;28;20037;-79
2021/06/26 01:37:58;;;;;;;2.13;1.83;;;13.50;99.90;;;;;;5047337;28;20036;-79
2021/06/26 01:40:26;;;;;;;2.30;1.88;;;13.50;99.90;;;;;;5026737;28;20646;-79
2021/06/26 01:42:53;;;;;;;3.58;2.28;;;13.50;99.90;;;;;;5063273;28;20032;-79
2021/06/26 01:45:20;;;;;;;2.05;1.95;;;13.40;99.90;;;;;;5063507;28;20044;-79
2021/06/26 01:47:48;;;;;;;2.30;2.10;;;13.40;99.90;;;;;;5022096;28;20041;-79
2021/06/26 01:50:15;;;;;;;2.75;2.20;;;13.40;99.90;;;;;;5042965;28;20484;-79
2021/06/26 01:52:43;;;;;;;2.10;1.85;;;13.40;99.90;;;;;;5027852;28;20021;-78
2021/06/26 01:55:09;;;;;;;5.45;2.30;;;13.40;99.90;;;;;;5042666;28;20021;-79
2021/06/26 01:57:35;;;;;;;2.33;1.83;;;13.30;99.90;;;;;;5046415;28;20029;-79
2021/06/26 02:00:00;;;;;;;2.38;2.08;;;13.30;99.90;;;;;;5062515;28;20384;-79
2021/06/26 02:02:26;;;;;;;1.65;1.55;;;13.40;99.90;;;;;;5033674;28;20037;-79
2021/06/26 02:04:52;;;;;;;2.78;2.05;;;13.40;99.90;;;;;;5013412;28;20033;-79
2021/06/26 02:07:17;;;;;;;3.35;2.20;;;13.40;99.90;;;;;;5013443;28;20484;-79
2021/06/26 02:09:43;;;;;;;2.15;1.73;;;13.50;99.90;;;;;;4980345;28;20144;-79
2021/06/26 02:12:09;;;;;;;2.55;2.05;;;13.60;99.90;;;;;;5013142;28;20112;-79
2021/06/26 02:14:35;;;;;;;2.08;1.88;;;13.60;99.90;;;;;;5027477;28;20056;-80
2021/06/26 02:17:01;;;;;;;2.53;2.10;;;13.60;99.90;;;;;;5020349;28;20030;-79
2021/06/26 02:19:26;;;;;;;1.77;1.67;;;13.60;99.90;;;;;;5044160;28;20515;-80
2021/06/26 02:21:52;;;;;;;1.60;1.27;;;13.50;99.90;;;;;;5014426;28;20022;-79
2021/06/26 02:24:18;;;;;;;1.80;1.70;;;13.50;99.90;;;;;;5015228;28;20038;-80
2021/06/26 02:26:47;;;;;;;2.15;1.33;;;13.40;99.90;;;;;;5031296;28;20030;-79
2021/06/26 02:29:13;;;;;;;1.30;1.20;;;13.40;99.90;;;;;;5031834;28;20120;-79
2021/06/26 02:31:38;;;;;;;1.70;1.60;;;13.30;99.90;;;;;;5028492;28;20470;-79
2021/06/26 02:34:04;;;;;;;1.60;1.50;;;13.30;99.90;;;;;;5016189;28;20075;-79
2021/06/26 02:36:30;;;;;;;1.38;1.27;;;13.20;99.90;;;;;;5032426;28;20104;-79
2021/06/26 03:30:06;;;;;;;2.60;2.28;;;12.10;99.90;;;;;;5093383;27;20342;-79
2021/06/26 03:32:32;;;;;;;3.97;2.35;;;12.10;99.90;;;;;;5088029;28;20082;-79
2021/06/26 03:34:58;;;;;;;5.15;3.15;;;12.10;99.90;;;;;;5104078;28;20440;-79
2021/06/26 03:37:24;;;;;;;4.47;2.97;;;12.20;99.90;;;;;;5086847;28;20494;-80
2021/06/26 03:39:49;;;;;;;2.67;2.42;;;12.30;99.90;;;;;;5086694;28;20036;-80
2021/06/26 03:42:15;;;;;;;2.83;2.58;;;12.40;99.90;;;;;;5081126;28;20028;-80
2021/06/26 03:44:41;;;;;;;4.32;2.08;;;12.40;99.90;;;;;;5108626;28;20032;-79
2021/06/26 03:47:07;;;;;;;2.85;2.30;;;12.50;99.90;;;;;;5078686;28;20050;-79
2021/06/26 03:49:36;;;;;;;3.28;2.35;;;12.60;99.90;;;;;;5071382;28;20442;-79
2021/06/26 03:52:03;;;;;;;2.30;2.08;;;12.70;99.90;;;;;;5070055;28;20048;-80
2021/06/26 03:54:29;;;;;;;1.98;1.77;;;12.70;99.90;;;;;;5086721;28;20162;-80
2021/06/26 03:56:55;;;;;;;2.78;2.30;;;12.80;99.90;;;;;;5069650;28;20050;-79
2021/06/26 03:59:20;;;;;;;2.97;1.75;;;12.90;99.90;;;;;;5086253;28;20544;-80
2021/06/26 04:01:46;;;;;;;2.88;1.85;;;12.90;99.90;;;;;;5087640;28;20036;-80
2021/06/26 04:04:12;;;;;;;2.55;2.10;;;13.00;99.90;;;;;;5088429;28;20035;-79
2021/06/26 04:06:38;;;;;;;1.80;1.70;;;13.00;99.90;;;;;;5065479;28;20545;-80
2021/06/26 04:09:04;;;;;;;1.98;1.83;;;13.10;99.90;;;;;;5098846;28;20046;-80
2021/06/26 04:11:30;;;;;;;2.00;1.90;;;13.20;99.90;;;;;;5088991;28;20027;-80
2021/06/26 04:13:56;;;;;;;4.93;2.17;;;13.30;99.90;;;;;;5088473;28;20067;-80
2021/06/26 04:16:21;;;;;;;3.05;1.67;;;13.40;99.90;;;;;;5089332;28;20135;-79
2021/06/26 04:18:47;;;;;;;3.85;2.45;;;13.40;99.90;;;;;;5089822;28;20035;-80
2021/06/26 04:21:13;;;;;;;2.72;2.05;;;13.50;99.90;;;;;;5106246;28;20031;-80
2021/06/26 04:23:39;;;;;;;3.13;2.10;;;13.50;99.90;;;;;;5052458;28;20029;-80
2021/06/26 04:26:04;;;;;;;2.20;2.00;;;13.50;99.90;;;;;;5069128;28;20063;-80
2021/06/26 04:28:30;;;;;;;3.28;2.42;;;13.50;99.90;;;;;;5080273;28;20470;-80
2021/06/26 04:30:57;;;;;;;2.20;2.00;;;13.60;99.90;;;;;;5084748;28;20020;-80
2021/06/26 04:33:26;;;;;;;1.63;1.52;;;13.70;99.90;;;;;;5089327;28;20054;-80
2021/06/26 04:35:51;;;;;;;1.98;1.80;;;13.80;99.90;;;;;;5072130;28;20402;-80
2021/06/26 04:38:23;;;;;;;1.95;1.80;;;13.80;99.90;;;;;;5089742;28;20033;-80
2021/06/26 04:40:51;;;;;;;2.28;2.08;;;13.90;99.90;;;;;;5063703;28;20047;-80
2021/06/26 04:43:19;;;;;;;1.67;1.58;;;13.90;99.90;;;;;;5071011;28;20046;-80
2021/06/26 04:45:46;;;;;;;1.60;1.50;;;14.00;99.90;;;;;;5082257;28;20497;-80
2021/06/26 04:48:15;;;;;;;1.45;1.35;;;14.10;99.90;;;;;;5061754;28;20044;-80
2021/06/26 04:50:41;;;;;;;1.80;1.70;;;14.10;99.90;;;;;;5064995;28;20036;-80
2021/06/26 04:53:07;;;;;;;1.63;1.50;;;14.20;99.90;;;;;;5076325;28;20089;-80
2021/06/26 04:55:33;;;;;;;1.63;1.52;;;14.20;99.90;;;;;;5072756;28;20027;-80
2021/06/26 04:57:58;;;;;;;1.70;1.60;;;14.20;99.90;;;;;;5075673;28;20047;-80
2021/06/26 05:00:24;;;;;;;1.67;1.58;;;14.30;99.90;;;;;;5092602;28;20032;-80
2021/06/26 05:02:50;;;;;;;1.77;1.63;;;14.40;99.90;;;;;;5056070;28;20067;-80
2021/06/26 05:05:16;;;;;;;1.70;1.60;;;14.40;99.90;;;;;;5056140;28;20037;-80
2021/06/26 05:07:42;;;;;;;1.98;1.77;;;14.40;99.90;;;;;;5055745;28;20515;-80
2021/06/26 05:10:08;;;;;;;1.60;1.50;;;14.50;99.90;;;;;;5084191;28;20070;-79
2021/06/26 05:12:34;;;;;;;2.00;1.90;;;14.50;99.90;;;;;;5073352;28;20016;-80
2021/06/26 05:14:59;;;;;;;2.60;1.55;;;14.60;99.90;;;;;;5055854;28;20043;-81
2021/06/26 05:17:25;;;;;;;1.58;1.48;;;14.60;99.90;;;;;;5055505;28;20036;-80
2021/06/26 05:19:51;;;;;;;1.73;1.58;;;14.70;99.90;;;;;;5038707;28;20037;-80
2021/06/26 05:22:17;;;;;;;1.92;1.80;;;14.80;99.90;;;;;;5058531;28;20032;-80
2021/06/26 05:24:42;;;;;;;2.03;1.92;;;14.80;99.90;;;;;;5055172;28;20036;-80
2021/06/26 05:27:08;;;;;;;2.70;2.30;;;14.90;99.90;;;;;;5073324;28;20074;-80
2021/06/26 05:29:40;;;;;;;2.60;2.20;;;15.00;99.90;;;;;;5073074;28;20506;-80
2021/06/26 05:32:06;;;;;;;2.30;2.10;;;15.10;99.90;;;;;;5041847;28;20086;-80
2021/06/26 05:34:32;;;;;;;3.30;2.67;;;15.20;99.90;;;;;;5072791;28;20032;-80
2021/06/26 05:36:58;;;;;;;2.65;2.38;;;15.20;99.90;;;;;;5038912;28;20028;-80
2021/06/26 05:39:23;;;;;;;3.13;2.83;;;15.30;99.90;;;;;;5045707;28;20093;-81
2021/06/26 05:41:49;;;;;;;4.07;2.53;;;15.30;99.90;;;;;;5030977;28;20067;-80
2021/06/26 05:44:15;;;;;;;2.47;2.28;;;15.30;99.90;;;;;;5093210;28;20111;-80
2021/06/26 05:46:40;;;;;;;4.50;2.80;;;15.30;99.90;;;;;;5091857;28;20543;-81
2021/06/26 05:49:06;;;;;;;3.20;2.97;;;15.30;99.90;;;;;;5074444;28;20080;-80
2021/06/26 05:51:32;;;;;;;2.63;2.42;;;15.30;99.90;;;;;;5057041;28;20032;-81
2021/06/26 05:53:58;;;;;;;6.78;2.97;;;15.30;99.90;;;;;;5074565;28;20505;-81
2021/06/26 05:56:24;;;;;;;3.60;3.10;;;15.40;99.90;;;;;;5079637;28;20061;-81
2021/06/26 05:58:50;;;;;;;7.22;3.25;;;15.40;99.90;;;;;;5070215;28;20613;-81
2021/06/26 06:01:15;;;;;;;3.13;2.60;;;15.50;99.90;;;;;;5042168;28;20151;-81
2021/06/26 06:03:41;;;;;;;3.15;2.88;;;15.50;99.90;;;;;;5072004;28;20573;-80
2021/06/26 06:06:07;;;;;;;2.60;2.40;;;15.50;99.90;;;;;;5071492;28;20040;-81
2021/06/26 06:08:33;;;;;;;3.28;2.72;;;15.50;99.90;;;;;;5041172;28;20040;-80
2021/06/26 06:11:00;;;;;;;3.58;3.20;;;15.40;99.90;;;;;;5072656;28;20025;-81
2021/06/26 06:13:26;;;;;;;3.67;3.05;;;15.50;99.90;;;;;;5090992;28;20063;-80
2021/06/26 06:15:51;;;;;;;3.33;2.70;;;15.60;99.90;;;;;;5079728;28;20064;-81
2021/06/26 06:18:19;;;;;;;3.20;2.90;;;15.70;99.90;;;;;;5092098;28;20039;-81
2021/06/26 06:20:46;;;;;;;2.92;2.63;;;15.80;99.90;;;;;;5045187;28;20490;-81
2021/06/26 06:23:12;;;;;;;2.63;2.42;;;15.90;99.90;;;;;;5040171;28;20028;-80
2021/06/26 06:25:39;;;;;;;3.58;2.75;;;15.90;99.90;;;;;;5081640;28;20035;-80
2021/06/26 06:28:05;;;;;;;2.95;2.65;;;16.00;99.90;;;;;;5078282;28;20036;-80
2021/06/26 06:30:32;;;;;;;6.18;3.30;;;16.00;99.90;;;;;;5072738;28;20550;-80
2021/06/26 06:32:59;;;;;;;3.10;2.80;;;16.10;99.90;;;;;;5053494;28;20036;-80
2021/06/26 06:35:26;;;;;;;4.97;2.78;;;16.20;99.90;;;;;;5068281;28;20411;-80
2021/06/26 06:37:51;;;;;;;3.80;3.08;;;16.30;99.90;;;;;;5068544;28;20040;-80
2021/06/26 06:40:17;;;;;;;9.80;4.10;;;16.40;99.90;;;;;;5053021;28;20033;-80
2021/06/26 06:42:44;;;;;;;3.97;3.58;;;16.50;99.90;;;;;;5063534;28;20032;-80
2021/06/26 06:45:10;;;;;;;5.00;4.03;;;16.60;99.90;;;;;;5089363;28;20054;-80
2021/06/26 06:47:37;;;;;;;4.20;3.47;;;16.60;99.90;;;;;;5069102;28;20028;-80
2021/06/26 06:50:04;;;;;;;7.68;5.18;;;16.70;99.90;;;;;;5073257;28;20047;-80
2021/06/26 06:52:30;;;;;;;6.80;5.28;;;16.70;99.90;;;;;;5083353;28;20028;-80
2021/06/26 06:54:55;;;;;;;8.90;5.40;;;16.80;99.90;;;;;;5025302;28;20057;-81
2021/06/26 06:57:23;;;;;;;6.97;5.32;;;16.80;99.90;;;;;;5072892;28;20085;-81
2021/06/26 06:59:50;;;;;;;7.25;5.72;;;16.70;99.90;;;;;;5052059;28;20025;-80
2021/06/26 07:02:16;;;;;;;7.75;6.20;;;16.90;99.90;;;;;;5087675;28;20082;-80
2021/06/26 07:04:42;;;;;;;8.43;6.03;;;17.20;99.90;;;;;;5089691;28;20036;-80
2021/06/26 07:07:08;;;;;;;5.53;4.38;;;17.70;99.90;;;;;;5090987;28;20525;-80
2021/06/26 07:09:34;;;;;;;4.22;3.70;;;19.00;99.90;;;;;;5051200;28;20037;-80
2021/06/26 07:12:00;;;;;;;3.97;3.58;;;20.00;99.90;;;;;;5052698;28;20029;-80
2021/06/26 07:14:26;;;;;;;5.57;4.70;;;20.50;99.90;;;;;;5069730;28;20453;-81
2021/06/26 07:16:52;;;;;;;4.50;4.10;;;20.90;99.90;;;;;;5073748;28;20077;-82
2021/06/26 07:19:18;;;;;;;4.90;4.35;;;21.00;99.90;;;;;;5041708;28;20036;-82
2021/06/26 07:21:43;;;;;;;5.35;4.78;;;21.10;99.90;;;;;;5055453;28;20032;-82
2021/06/26 07:24:09;;;;;;;4.72;4.22;;;21.20;99.90;;;;;;5051795;28;20677;-82
2021/06/26 07:26:36;;;;;;;3.60;3.30;;;21.20;99.90;;;;;;5072977;28;20514;-82
2021/06/26 07:29:02;;;;;;;4.10;3.67;;;21.20;99.90;;;;;;5088336;28;20370;-82
2021/06/26 07:31:27;;;;;;;4.15;3.47;;;21.20;99.90;;;;;;5069396;28;20082;-82
2021/06/26 07:33:53;;;;;;;4.07;3.55;;;21.30;99.90;;;;;;5050533;28;20060;-82
2021/06/26 07:36:19;;;;;;;4.47;4.07;;;21.50;99.90;;;;;;5061598;28;20036;-82
2021/06/26 07:38:45;;;;;;;4.10;3.70;;;21.80;99.90;;;;;;5051496;28;20039;-83
2021/06/26 07:41:11;;;;;;;4.90;4.40;;;21.60;99.90;;;;;;5086231;28;20036;-83
2021/06/26 07:43:37;;;;;;;3.97;3.58;;;21.80;99.90;;;;;;5070390;28;20499;-84
2021/06/26 07:46:03;;;;;;;4.07;3.65;;;22.20;99.90;;;;;;5068189;28;20414;-83
2021/06/26 07:48:29;;;;;;;4.35;3.95;;;22.50;99.90;;;;;;5080199;28;20024;-84
2021/06/26 07:50:56;;;;;;;4.35;3.55;;;22.90;99.90;;;;;;5056592;28;20029;-84
2021/06/26 07:53:22;;;;;;;5.25;4.40;;;23.20;99.90;;;;;;5069523;28;20028;-84
2021/06/26 07:55:52;;;;;;;4.35;3.95;;;23.30;99.90;;;;;;5056476;28;20063;-83
2021/06/26 07:58:22;;;;;;;4.07;3.67;;;23.40;99.90;;;;;;5081393;28;20044;-84
2021/06/26 08:00:48;;;;;;;4.30;3.70;;;23.30;99.90;;;;;;5055403;28;20501;-84
2021/06/26 08:03:18;;;;;;;4.00;3.60;;;23.50;99.90;;;;;;5072389;28;20045;-84
2021/06/26 08:05:47;;;;;;;3.80;3.40;;;23.50;99.90;;;;;;5055941;28;20136;-85
2021/06/26 08:08:13;;;;;;;4.05;3.65;;;23.60;99.90;;;;;;5064663;28;20033;-84
2021/06/26 08:10:40;;;;;;;5.15;4.63;;;23.70;99.90;;;;;;5072899;28;20480;-85
2021/06/26 08:13:06;;;;;;;3.90;3.50;;;23.90;99.90;;;;;;5048632;28;20067;-84
2021/06/26 08:15:36;;;;;;;3.67;3.25;;;24.30;99.90;;;;;;5070192;28;20053;-84
2021/06/26 08:18:02;;;;;;;4.70;3.85;;;24.70;99.90;;;;;;5077301;28;20040;-84
2021/06/26 08:20:28;;;;;;;3.42;3.10;;;25.10;99.90;;;;;;5074315;28;20028;-84
2021/06/26 08:22:53;;;;;;;5.53;3.33;;;25.50;99.90;;;;;;5048331;28;20146;-84
2021/06/26 08:25:19;;;;;;;3.50;3.20;;;26.00;99.90;;;;;;5090693;28;20023;-84
2021/06/26 08:27:45;;;;;;;5.43;3.88;;;26.30;99.90;;;;;;5071226;28;20111;-84
2021/06/26 08:30:12;;;;;;;3.13;2.83;;;26.60;99.90;;;;;;5075326;28;20034;-84
2021/06/26 08:32:37;;;;;;;3.15;2.92;;;26.80;99.90;;;;;;5090121;28;20111;-84
2021/06/26 08:35:03;;;;;;;3.40;3.10;;;27.20;99.90;;;;;;5065538;28;20562;-84
2021/06/26 08:37:29;;;;;;;3.55;3.10;;;27.40;99.90;;;;;;5084629;28;20178;-82
2021/06/26 08:39:55;;;;;;;4.72;3.80;;;27.70;99.90;;;;;;5055959;28;20038;-81
2021/06/26 08:42:21;;;;;;;3.45;3.03;;;27.80;99.90;;;;;;5093960;28;20031;-82
2021/06/26 08:44:49;;;;;;;4.13;3.72;;;27.90;99.90;;;;;;5081187;28;20033;-81
2021/06/26 08:47:15;;;;;;;4.00;3.60;;;28.20;99.50;;;;;;5082723;28;20639;-81
2021/06/26 08:49:41;;;;;;;6.13;3.40;;;28.40;99.90;;;;;;5087498;28;20123;-81
2021/06/26 08:52:07;;;;;;;4.80;3.70;;;28.50;98.60;;;;;;5082695;28;20056;-81
2021/06/26 08:54:33;;;;;;;3.88;3.47;;;28.60;95.30;;;;;;5094530;28;20456;-81
2021/06/26 08:56:59;;;;;;;3.63;3.33;;;28.40;95.70;;;;;;5090506;28;20032;-82
2021/06/26 08:59:24;;;;;;;3.97;3.53;;;28.30;95.00;;;;;;5070783;28;20024;-82
2021/06/26 09:01:50;;;;;;;3.45;3.15;;;27.90;91.10;;;;;;5078492;28;20105;-82
2021/06/26 09:04:19;;;;;;;5.15;3.92;;;27.60;94.40;;;;;;5052671;28;20036;-82
2021/06/26 09:06:56;;;;;;;4.00;3.60;;;27.30;90.50;;;;;;5087369;28;20505;-82
2021/06/26 09:09:32;;;;;;;4.93;4.40;;;27.10;93.80;;;;;;5089611;28;20032;-82
2021/06/26 09:12:06;;;;;;;4.45;4.05;;;26.70;93.80;;;;;;5081266;28;20041;-81
2021/06/26 09:14:36;;;;;;;6.30;4.00;;;26.20;96.80;;;;;;5070781;28;20673;-81
2021/06/26 09:17:03;;;;;;;3.72;3.42;;;25.90;99.90;;;;;;5088839;28;20162;-81
2021/06/26 09:19:30;;;;;;;3.90;3.50;;;25.80;99.90;;;;;;5073722;28;20043;-81
2021/06/26 09:22:04;;;;;;;4.15;3.40;;;25.80;99.90;;;;;;5075718;28;20029;-81
2021/06/26 09:24:56;;;;;;;3.95;3.65;;;25.90;99.90;;;;;;5083622;28;20441;-82
2021/06/26 09:27:22;;;;;;;3.72;3.42;;;25.90;97.90;;;;;;5067704;28;20047;-81
2021/06/26 09:29:53;;;;;;;3.83;3.53;;;25.60;99.90;;;;;;5085361;28;20035;-81
2021/06/26 09:32:27;;;;;;;4.22;3.63;;;25.50;99.90;;;;;;5066445;28;20091;-82
2021/06/26 09:34:53;;;;;;;4.85;3.95;;;25.30;97.10;;;;;;5067646;28;20028;-81
2021/06/26 09:37:28;;;;;;;6.28;3.53;;;25.00;98.20;;;;;;5072058;28;20482;-81
2021/06/26 09:39:56;;;;;;;4.32;3.90;;;24.80;99.60;;;;;;5072508;28;20055;-81
2021/06/26 09:42:27;;;;;;;4.47;3.97;;;24.60;99.30;;;;;;5047703;28;20024;-81
2021/06/26 09:45:05;;;;;;;3.42;3.13;;;24.50;98.90;;;;;;5051378;28;20036;-83
2021/06/26 09:47:35;;;;;;;4.18;3.78;;;24.40;99.30;;;;;;5084429;28;20036;-81
2021/06/26 09:50:07;;;;;;;3.60;3.20;;;24.20;99.90;;;;;;5078830;28;20035;-82
2021/06/26 09:52:49;;;;;;;4.35;3.95;;;24.10;99.30;;;;;;5075997;28;20036;-80
2021/06/26 09:55:19;;;;;;;4.72;3.92;;;23.90;98.20;;;;;;5082375;28;20044;-81
2021/06/26 09:57:45;;;;;;;4.10;3.70;;;23.70;99.90;;;;;;5071412;28;20025;-81
2021/06/26 10:00:12;;;;;;;4.13;3.72;;;23.40;99.90;;;;;;5077858;28;20929;-81
2021/06/26 10:02:38;;;;;;;4.38;3.92;;;23.30;99.90;;;;;;5071625;28;20023;-81
2021/06/26 10:05:05;;;;;;;3.97;3.58;;;23.30;99.90;;;;;;5078418;28;20024;-81
2021/06/26 10:07:31;;;;;;;4.07;3.67;;;23.30;99.90;;;;;;5058527;28;20565;-81
2021/06/26 10:09:57;;;;;;;3.30;3.00;;;23.40;99.90;;;;;;5080449;28;20040;-80
2021/06/26 10:12:23;;;;;;;4.00;3.60;;;23.40;99.90;;;;;;5075750;28;20043;-80
2021/06/26 10:14:49;;;;;;;3.30;3.00;;;23.30;99.90;;;;;;5074036;28;20028;-81
2021/06/26 10:17:15;;;;;;;3.10;2.80;;;23.30;99.90;;;;;;5066385;28;20029;-82
2021/06/26 10:19:43;;;;;;;3.90;3.47;;;23.30;99.90;;;;;;5082820;28;20028;-80
2021/06/26 10:22:09;;;;;;;4.35;3.80;;;23.50;99.90;;;;;;5079635;28;20021;-80
2021/06/26 10:24:35;;;;;;;3.50;3.20;;;23.60;99.90;;;;;;5084696;28;20020;-80
2021/06/26 10:27:01;;;;;;;3.70;3.40;;;23.60;99.90;;;;;;5067361;28;20111;-80
2021/06/26 10:29:29;;;;;;;4.50;4.10;;;23.60;99.90;;;;;;5084436;28;20119;-80
2021/06/26 10:31:55;;;;;;;4.25;3.85;;;23.60;95.30;;;;;;5085071;28;20040;-82
2021/06/26 10:34:25;;;;;;;3.70;3.40;;;23.40;98.00;;;;;;5077634;28;20039;-80
2021/06/26 10:36:53;;;;;;;4.43;3.55;;;23.30;99.70;;;;;;5079726;28;20020;-81
2021/06/26 10:39:22;;;;;;;4.72;3.50;;;23.10;98.60;;;;;;5072939;28;20471;-81
2021/06/26 10:42:09;;;;;;;3.45;3.15;;;23.10;99.90;;;;;;5074203;28;20041;-82
2021/06/26 10:44:47;;;;;;;3.67;3.38;;;23.10;98.40;;;;;;5082694;28;20061;-81
2021/06/26 10:47:32;;;;;;;3.67;3.38;;;23.20;98.70;;;;;;5082936;28;20072;-79
2021/06/26 10:50:18;;;;;;;;;;;23.10;95.00;;;;;;5078000;28;20035;-80
2021/06/26 10:52:58;;;;;;;3.78;3.00;;;23.10;94.90;;;;;;5082628;28;19920;-80
2021/06/26 10:55:27;;;;;;;3.45;3.15;;;23.00;95.50;;;;;;5086634;28;20020;-80
2021/06/26 10:57:53;;;;;;;3.58;3.28;;;23.00;99.90;;;;;;5081271;28;20115;-79
2021/06/26 11:00:33;;;;;;;3.70;3.33;;;23.00;99.90;;;;;;5080344;28;20021;-80
2021/06/26 11:03:00;;;;;;;3.83;3.03;;;23.00;99.90;;;;;;5073813;28;20028;-79
2021/06/26 11:05:28;;;;;;;3.83;3.05;;;23.20;99.90;;;;;;5088563;28;20028;-80
2021/06/26 11:07:54;;;;;;;3.85;3.40;;;23.20;98.00;;;;;;5078554;28;20106;-80
2021/06/26 11:10:20;;;;;;;3.13;2.83;;;23.30;99.90;;;;;;5067705;28;20499;-79
2021/06/26 11:12:48;;;;;;;3.90;3.45;;;23.30;99.90;;;;;;5088748;28;20016;-80
2021/06/26 11:15:23;;;;;;;4.32;3.30;;;23.40;99.90;;;;;;5075931;28;20100;-80
2021/06/26 11:17:49;;;;;;;4.03;3.28;;;23.50;98.90;;;;;;5070928;28;20035;-80
2021/06/26 11:20:17;;;;;;;3.38;3.03;;;23.50;97.90;;;;;;5087817;28;20040;-79
2021/06/26 11:22:51;;;;;;;3.53;3.22;;;23.70;96.10;;;;;;5073493;28;20029;-79
2021/06/26 11:25:16;;;;;;;3.13;2.83;;;23.80;97.90;;;;;;5085996;28;20540;-81
2021/06/26 11:27:42;;;;;;;3.42;3.13;;;24.00;96.90;;;;;;5084172;28;20028;-81
2021/06/26 11:30:09;;;;;;;3.28;2.90;;;24.10;95.20;;;;;;5081631;28;20036;-81
2021/06/26 11:32:36;;;;;;;3.42;2.70;;;24.20;96.80;;;;;;5080446;28;20025;-81
2021/06/26 11:35:10;;;;;;;2.88;2.63;;;24.40;94.50;;;;;;5087512;28;20036;-85
2021/06/26 11:37:48;;;;;;;3.15;2.92;;;24.50;93.60;;;;;;5070661;28;20024;-86
2021/06/26 11:40:14;;;;;;;2.95;2.65;;;24.60;98.50;;;;;;5048016;28;20044;-87
2021/06/26 11:42:52;;;;;;;4.57;2.75;;;24.70;95.90;;;;;;5064885;28;20024;-86
2021/06/26 11:45:24;;;;;;;3.17;2.88;;;25.00;95.00;;;;;;5078523;28;20100;-86
2021/06/26 11:48:04;;;;;;;3.85;2.83;;;25.20;91.50;;;;;;5049668;28;20096;-86
2021/06/26 11:50:30;;;;;;;3.20;2.90;;;25.20;86.50;;;;;;5076198;28;20089;-86
2021/06/26 11:53:11;;;;;;;3.25;2.95;;;25.10;94.50;;;;;;5084603;28;20481;-85
2021/06/26 11:55:37;;;;;;;3.00;2.70;;;25.00;95.70;;;;;;5081133;28;20032;-85
2021/06/26 11:58:03;;;;;;;3.33;2.80;;;25.10;84.40;;;;;;5088435;28;20665;-87
2021/06/26 12:00:29;;;;;;;3.15;2.85;;;25.10;83.30;;;;;;5073748;28;20035;-84
2021/06/26 12:02:55;;;;;;;2.50;2.30;;;24.90;85.00;;;;;;5090969;28;20088;-85
2021/06/26 12:05:21;;;;;;;2.83;2.50;;;24.90;88.10;;;;;;5065421;28;20173;-85
2021/06/26 12:07:48;;;;;;;2.90;2.70;;;25.00;88.70;;;;;;5081521;28;20526;-84
2021/06/26 12:10:14;;;;;;;2.90;2.60;;;25.10;83.40;;;;;;5067652;28;20402;-82
2021/06/26 12:12:41;;;;;;;2.80;2.40;;;25.40;87.70;;;;;;5044823;28;20044;-83
2021/06/26 12:15:10;;;;;;;3.00;2.80;;;25.80;89.60;;;;;;5060753;28;20028;-84
2021/06/26 12:17:37;;;;;;;2.97;2.05;;;26.30;88.50;;;;;;5075300;28;20023;-85
2021/06/26 12:20:08;;;;;;;2.40;2.20;;;26.50;78.00;;;;;;5073004;28;20043;-82
2021/06/26 12:22:34;;;;;;;2.70;2.50;;;26.70;73.00;;;;;;5089667;28;20035;-83
2021/06/26 12:25:07;;;;;;;2.40;2.20;;;26.80;73.80;;;;;;5072951;28;20033;-83
2021/06/26 12:27:33;;;;;;;2.03;1.92;;;26.90;68.50;;;;;;5083290;28;20046;-85
2021/06/26 12:30:02;;;;;;;3.05;2.00;;;27.20;68.50;;;;;;5055349;28;20044;-84
2021/06/26 12:32:34;;;;;;;3.05;1.90;;;27.30;70.80;;;;;;5070048;28;20410;-84
2021/06/26 12:35:00;;;;;;;2.20;1.90;;;27.40;61.50;;;;;;5079804;28;20115;-84
2021/06/26 12:37:31;;;;;;;2.28;2.08;;;27.30;59.30;;;;;;5070058;28;20047;-86
2021/06/26 12:40:12;;;;;;;2.00;1.90;;;27.10;57.20;;;;;;5083255;28;20082;-85
2021/06/26 12:42:58;;;;;;;3.38;2.10;;;26.90;60.30;;;;;;5067211;28;20052;-85
2021/06/26 12:45:42;;;;;;;2.20;2.00;;;27.10;62.80;;;;;;5080222;28;20103;-84
2021/06/26 12:48:17;;;;;;;3.70;1.88;;;27.40;57.70;;;;;;5072549;28;20052;-84
2021/06/26 12:53:45;;;;;;;1.90;1.77;;;27.20;64.80;;;;;;5078092;28;20028;-85
2021/06/26 12:56:14;;;;;;;2.38;2.08;;;26.90;67.60;;;;;;5064615;28;20062;-85
2021/06/26 12:58:52;;;;;;;2.83;2.53;;;26.70;69.10;;;;;;5083571;28;20020;-85
2021/06/26 13:01:19;;;;;;;2.13;1.92;;;26.80;66.10;;;;;;5065931;28;20123;-84
2021/06/26 13:03:52;;;;;;;2.80;2.00;;;27.00;66.90;;;;;;5072036;28;20403;-85
2021/06/26 13:06:18;;;;;;;2.40;2.20;;;27.60;65.10;;;;;;5051687;28;20173;-83
2021/06/26 13:08:52;;;;;;;2.20;2.00;;;28.30;62.70;;;;;;5046461;28;20032;-82
2021/06/26 13:11:36;;;;;;;5.00;2.47;;;29.10;61.20;;;;;;5081236;28;20036;-83
2021/06/26 13:14:04;;;;;;;1.88;1.70;;;29.70;61.20;;;;;;5057883;28;20036;-84
2021/06/26 13:16:31;;;;;;;2.22;2.05;;;30.20;58.20;;;;;;5062483;28;20033;-84
2021/06/26 13:18:56;;;;;;;2.38;2.13;;;30.60;61.20;;;;;;5091016;28;20036;-82
2021/06/26 13:21:22;;;;;;;2.28;2.05;;;30.50;63.20;;;;;;5076139;28;20020;-83
2021/06/26 13:23:48;;;;;;;3.00;2.00;;;30.20;66.50;;;;;;5071480;28;20024;-82
2021/06/26 13:26:14;;;;;;;2.58;2.13;;;29.90;68.10;;;;;;5089917;28;20425;-83
2021/06/26 13:28:39;;;;;;;3.03;2.05;;;29.60;66.60;;;;;;5068767;28;20047;-83
2021/06/26 13:31:05;;;;;;;2.15;1.98;;;29.10;62.90;;;;;;5049398;28;20040;-84
2021/06/26 13:33:31;;;;;;;2.10;2.00;;;28.90;60.30;;;;;;5087204;28;20414;-83
2021/06/26 13:35:57;;;;;;;2.10;2.00;;;28.40;62.70;;;;;;5055066;28;20039;-84
2021/06/26 13:38:22;;;;;;;2.47;2.28;;;28.00;66.00;;;;;;5054396;28;20067;-84
2021/06/26 13:40:51;;;;;;;2.20;2.00;;;27.70;69.40;;;;;;5069325;28;20024;-84
2021/06/26 13:43:20;;;;;;;2.28;2.08;;;27.30;72.00;;;;;;5067169;28;20032;-85
2021/06/26 13:45:46;;;;;;;2.50;2.30;;;27.00;72.40;;;;;;5071256;28;20064;-85